Time;durP1;ratioP1;P1;durP2;ratioP2;P2;SDS_P1;SDS_P2;PMS_P1;PMS_P2;Temp;Humidity;BMP_temperature;BMP_pressure;BME280_temperature;BME280_humidity;BME280_pressure;Samples;Min_cycle;Max_cycle;Signal;HPM_P1;HPM_P2
2022/09/24 00:02:03;;;;;;;19.23;12.13;;;;;;;12.48;92.25;101200.81;5013220;28;20030;-70
2022/09/24 00:04:30;;;;;;;19.98;13.32;;;;;;;12.48;93.06;101200.81;5031046;28;20020;-70
2022/09/24 00:06:55;;;;;;;19.52;11.77;;;;;;;12.46;93.33;101205.50;5032141;28;20496;-71
2022/09/24 00:09:21;;;;;;;20.17;12.50;;;;;;;12.45;93.17;101208.34;5013994;28;20053;-71
2022/09/24 00:11:52;;;;;;;20.95;13.35;;;;;;;12.42;93.61;101208.59;5014398;28;20044;-72
2022/09/24 00:14:18;;;;;;;21.52;11.82;;;;;;;12.40;94.10;101205.09;5020506;28;20490;-71
2022/09/24 00:16:44;;;;;;;23.45;13.32;;;;;;;12.39;94.03;101200.63;5033966;28;20480;-70
2022/09/24 00:19:11;;;;;;;23.05;14.40;;;;;;;12.36;93.96;101196.28;5032840;28;20037;-70
2022/09/24 00:21:38;;;;;;;22.55;13.05;;;;;;;12.36;94.24;101192.69;5016104;28;20068;-70
2022/09/24 00:24:06;;;;;;;21.58;12.52;;;;;;;12.36;93.74;101195.41;5028353;28;20041;-70
2022/09/24 00:26:50;;;;;;;18.48;11.85;;;;;;;12.35;93.07;101191.78;5016575;28;20082;-70
2022/09/24 00:29:18;;;;;;;20.70;12.60;;;;;;;12.34;94.18;101186.44;5029930;28;20622;-71
2022/09/24 00:31:44;;;;;;;20.65;12.40;;;;;;;12.31;94.32;101181.22;5014011;28;20056;-70
2022/09/24 00:34:09;;;;;;;19.55;13.07;;;;;;;12.30;94.71;101184.94;5027460;28;20044;-70
2022/09/24 00:36:35;;;;;;;20.95;11.98;;;;;;;12.29;94.36;101177.75;5048373;28;20032;-70
2022/09/24 00:39:00;;;;;;;19.75;11.65;;;;;;;12.27;94.22;101177.00;5034114;28;20519;-70
2022/09/24 00:41:29;;;;;;;20.05;13.30;;;;;;;12.25;94.73;101177.97;5032093;28;20083;-70
2022/09/24 00:43:55;;;;;;;20.30;12.07;;;;;;;12.27;94.28;101177.88;5031612;28;20040;-70
2022/09/24 00:46:40;;;;;;;19.27;12.00;;;;;;;12.28;94.82;101173.28;5033385;28;20400;-70
2022/09/24 00:49:32;;;;;;;20.48;12.57;;;;;;;12.29;94.35;101170.41;5032777;28;20060;-70
2022/09/24 00:51:57;;;;;;;19.48;12.23;;;;;;;12.28;94.70;101173.28;5011083;28;20046;-70
2022/09/24 00:54:27;;;;;;;20.02;12.18;;;;;;;12.27;94.75;101166.94;5033078;28;20095;-70
2022/09/24 00:56:54;;;;;;;19.08;11.80;;;;;;;12.28;94.45;101165.09;5033280;28;20033;-70
2022/09/24 00:59:22;;;;;;;18.83;11.88;;;;;;;12.27;94.82;101164.22;5026737;28;20076;-70
2022/09/24 01:01:50;;;;;;;21.35;11.85;;;;;;;12.25;95.05;101156.13;5012160;28;20042;-70
2022/09/24 01:04:19;;;;;;;20.58;11.07;;;;;;;12.26;94.97;101159.72;5027562;28;20033;-70
2022/09/24 01:06:46;;;;;;;19.40;11.48;;;;;;;12.25;94.66;101149.81;5032821;28;20041;-70
2022/09/24 01:09:11;;;;;;;23.45;11.90;;;;;;;12.28;94.59;101156.91;5032824;28;20526;-70
2022/09/24 01:12:03;;;;;;;19.95;12.30;;;;;;;12.30;94.23;101144.00;5032844;28;20041;-70
2022/09/24 01:14:55;;;;;;;18.77;11.80;;;;;;;12.29;94.32;101150.47;5021024;28;20387;-70
2022/09/24 01:17:41;;;;;;;19.47;11.03;;;;;;;12.27;94.27;101133.34;5032901;28;20068;-70
2022/09/24 01:20:33;;;;;;;17.83;10.82;;;;;;;12.28;94.32;101144.13;5028744;28;20091;-70
2022/09/24 01:23:04;;;;;;;21.02;10.65;;;;;;;12.25;94.31;101137.03;5031389;28;20033;-70
2022/09/24 01:25:53;;;;;;;17.27;11.45;;;;;;;12.26;94.37;101137.91;5032800;28;20049;-70
2022/09/24 01:28:41;;;;;;;18.88;10.73;;;;;;;12.26;94.51;101132.44;5027901;28;20077;-70
2022/09/24 01:31:16;;;;;;;17.90;11.27;;;;;;;12.25;94.21;101128.84;5012831;28;20052;-70
2022/09/24 01:33:48;;;;;;;18.50;10.90;;;;;;;12.23;94.13;101130.84;5022894;28;20041;-71
2022/09/24 01:36:15;;;;;;;16.90;10.38;;;;;;;12.22;93.97;101126.38;5016067;28;20044;-71
2022/09/24 01:38:44;;;;;;;18.02;10.55;;;;;;;12.25;94.18;101120.66;5027901;28;20084;-71
2022/09/24 01:41:11;;;;;;;18.45;10.38;;;;;;;12.24;94.03;101121.66;5031060;28;20087;-70
2022/09/24 01:43:38;;;;;;;16.73;10.82;;;;;;;12.25;93.90;101119.81;5030420;28;20044;-71
2022/09/24 01:46:05;;;;;;;19.42;11.70;;;;;;;12.24;94.30;101118.06;5010356;28;20029;-70
2022/09/24 01:48:34;;;;;;;20.08;11.35;;;;;;;12.25;93.80;101117.06;5023940;28;20558;-70
2022/09/24 01:51:08;;;;;;;18.00;11.20;;;;;;;12.25;94.39;101117.94;5013390;28;20530;-71
2022/09/24 01:53:41;;;;;;;18.42;11.48;;;;;;;12.25;94.11;101111.63;5005498;28;20124;-70
2022/09/24 01:56:14;;;;;;;23.73;11.50;;;;;;;12.24;94.87;101107.16;5027724;28;20076;-70
2022/09/24 01:58:48;;;;;;;18.50;10.50;;;;;;;12.25;94.11;101114.34;5028167;28;20034;-71
2022/09/24 02:01:21;;;;;;;18.85;11.93;;;;;;;12.25;94.13;101115.22;5030882;28;20362;-71
2022/09/24 02:03:52;;;;;;;17.60;10.68;;;;;;;12.24;94.33;101102.56;5031447;28;20065;-71
2022/09/24 02:06:32;;;;;;;18.77;11.75;;;;;;;12.27;93.99;101106.06;5013790;28;20108;-71
2022/09/24 02:08:58;;;;;;;23.08;12.05;;;;;;;12.28;93.90;101113.25;5026574;28;20085;-71
2022/09/24 02:11:24;;;;;;;19.48;12.25;;;;;;;12.25;94.02;101106.16;5012159;28;20034;-72
2022/09/24 02:14:02;;;;;;;17.35;10.65;;;;;;;12.26;94.76;101110.63;5012627;28;20077;-71
2022/09/24 02:16:39;;;;;;;21.42;12.10;;;;;;;12.24;94.41;101096.25;5030376;28;20045;-71
2022/09/24 02:19:09;;;;;;;19.23;11.15;;;;;;;12.25;93.89;101107.03;5031142;28;20034;-71
2022/09/24 02:21:37;;;;;;;22.67;12.35;;;;;;;12.25;94.66;101106.16;5012556;28;20124;-71
2022/09/24 02:24:18;;;;;;;17.20;11.32;;;;;;;12.23;94.66;101098.09;5029031;28;20024;-70
2022/09/24 02:26:44;;;;;;;19.08;11.80;;;;;;;12.23;94.39;101099.97;5028443;28;20041;-72
2022/09/24 02:29:11;;;;;;;20.13;11.98;;;;;;;12.19;94.39;101091.13;5011719;28;20037;-72
2022/09/24 02:31:39;;;;;;;19.85;11.35;;;;;;;12.22;94.16;101095.50;5011802;28;20044;-71
2022/09/24 02:34:22;;;;;;;22.80;11.68;;;;;;;12.20;94.90;101095.59;5023294;28;20096;-71
2022/09/24 02:36:54;;;;;;;17.95;11.77;;;;;;;12.20;95.04;101092.00;5046069;28;20045;-71
2022/09/24 02:39:20;;;;;;;19.65;12.73;;;;;;;12.18;95.07;101097.59;5010343;28;20403;-71
2022/09/24 02:41:48;;;;;;;18.42;11.57;;;;;;;12.16;95.37;101083.16;5010770;28;20038;-71
2022/09/24 02:44:15;;;;;;;18.33;11.70;;;;;;;12.18;94.76;101092.13;5012429;28;20507;-71
2022/09/24 02:46:41;;;;;;;24.90;12.82;;;;;;;12.17;95.35;101084.94;5031260;28;20044;-71
2022/09/24 02:49:08;;;;;;;21.95;13.30;;;;;;;12.14;95.60;101082.44;5030621;28;20033;-71
2022/09/24 02:51:34;;;;;;;20.20;12.20;;;;;;;12.12;95.29;101080.78;5025745;28;20064;-70
2022/09/24 02:54:00;;;;;;;23.38;13.18;;;;;;;12.12;95.31;101078.94;5024596;28;20033;-71
2022/09/24 02:56:27;;;;;;;21.50;12.68;;;;;;;12.15;95.33;101081.44;5010034;28;20431;-72
2022/09/24 02:58:53;;;;;;;22.63;14.00;;;;;;;12.15;95.62;101077.84;5025752;28;20395;-71
2022/09/24 03:01:18;;;;;;;24.15;13.40;;;;;;;12.15;95.71;101080.56;5013053;28;20048;-71
2022/09/24 03:03:44;;;;;;;22.20;13.93;;;;;;;12.12;95.43;101072.59;5030295;28;20014;-71
2022/09/24 03:06:12;;;;;;;28.08;14.98;;;;;;;12.13;95.57;101082.56;5028982;28;20057;-71
2022/09/24 03:08:38;;;;;;;23.98;13.60;;;;;;;12.13;95.62;101080.69;5015867;28;20042;-70
2022/09/24 03:11:03;;;;;;;25.17;14.73;;;;;;;12.13;95.60;101071.66;5011455;28;20128;-70
2022/09/24 03:13:29;;;;;;;26.77;14.60;;;;;;;12.13;95.90;101071.66;5011260;28;20631;-71
2022/09/24 03:15:54;;;;;;;26.48;16.02;;;;;;;12.12;96.72;101076.19;5029350;28;20036;-71
2022/09/24 03:18:19;;;;;;;27.92;16.88;;;;;;;12.14;96.04;101076.97;5023929;28;20112;-71
2022/09/24 03:21:00;;;;;;;28.60;15.95;;;;;;;12.14;96.23;101070.66;5021026;28;20113;-70
2022/09/24 03:23:25;;;;;;;27.27;16.38;;;;;;;12.12;96.49;101067.16;5029986;28;20041;-70
2022/09/24 03:25:51;;;;;;;31.30;17.48;;;;;;;12.11;96.69;101065.41;5030575;28;20033;-70
2022/09/24 03:28:17;;;;;;;33.10;18.38;;;;;;;12.14;96.60;101070.66;5029109;28;20068;-69
2022/09/24 03:31:01;;;;;;;35.28;19.30;;;;;;;12.14;96.54;101067.94;5030080;28;20027;-71
2022/09/24 03:33:33;;;;;;;35.80;19.55;;;;;;;12.15;97.09;101065.06;5008143;28;20037;-71
2022/09/24 03:36:05;;;;;;;35.38;18.48;;;;;;;12.15;97.25;101065.06;5024303;28;20033;-70
2022/09/24 03:38:31;;;;;;;33.33;19.85;;;;;;;12.15;97.47;101061.47;5025297;28;20117;-71
2022/09/24 03:40:58;;;;;;;30.48;18.05;;;;;;;12.15;97.34;101062.34;5010619;28;20033;-71
2022/09/24 03:43:23;;;;;;;32.63;19.05;;;;;;;12.13;97.18;101052.56;5009242;28;20030;-71
2022/09/24 03:45:50;;;;;;;32.88;19.38;;;;;;;12.13;97.40;101060.75;5028115;28;20055;-71
2022/09/24 03:48:16;;;;;;;36.85;20.45;;;;;;;12.14;97.36;101055.16;5028310;28;20480;-70
2022/09/24 03:50:42;;;;;;;34.95;19.90;;;;;;;12.13;97.61;101045.25;5024926;28;20121;-71
2022/09/24 03:53:08;;;;;;;38.97;20.38;;;;;;;12.13;97.32;101049.84;5020750;28;20045;-71
2022/09/24 03:55:35;;;;;;;41.22;21.52;;;;;;;12.12;97.86;101042.59;5030564;28;20041;-71
2022/09/24 03:58:00;;;;;;;40.20;21.48;;;;;;;12.13;97.77;101045.25;5030542;28;20037;-71
2022/09/24 04:00:26;;;;;;;35.28;20.25;;;;;;;12.11;97.41;101046.31;5029209;28;20040;-71
2022/09/24 04:02:51;;;;;;;36.03;21.00;;;;;;;12.14;97.67;101037.94;5029692;28;20082;-71
2022/09/24 04:05:17;;;;;;;38.42;20.90;;;;;;;12.13;98.20;101039.78;5024764;28;20485;-71
2022/09/24 04:07:43;;;;;;;36.20;20.58;;;;;;;12.12;97.55;101045.34;5017225;28;20029;-71
2022/09/24 04:10:09;;;;;;;33.65;19.33;;;;;;;12.12;97.40;101037.16;5028529;28;20056;-71
2022/09/24 04:12:35;;;;;;;35.95;20.92;;;;;;;12.13;98.02;101038.91;5030524;28;20041;-71
2022/09/24 04:15:03;;;;;;;35.13;21.13;;;;;;;12.13;98.19;101028.88;5029218;28;20499;-71
2022/09/24 04:17:31;;;;;;;37.70;21.17;;;;;;;12.13;98.31;101037.06;5028788;28;20208;-71
2022/09/24 04:19:57;;;;;;;36.90;20.73;;;;;;;12.15;98.28;101034.22;5009637;28;20209;-71
2022/09/24 04:22:24;;;;;;;36.05;21.83;;;;;;;12.14;97.79;101043.38;5014282;28;20029;-71
2022/09/24 04:24:51;;;;;;;33.15;19.40;;;;;;;12.15;97.73;101035.06;5029873;28;20037;-71
2022/09/24 04:27:16;;;;;;;32.60;19.63;;;;;;;12.15;97.78;101031.47;5011263;28;20041;-72
2022/09/24 04:29:42;;;;;;;32.88;19.15;;;;;;;12.16;97.95;101027.75;5018477;28;20377;-71
2022/09/24 04:32:07;;;;;;;35.08;21.02;;;;;;;12.16;98.02;101027.75;5028557;28;20042;-71
2022/09/24 04:34:32;;;;;;;30.73;18.58;;;;;;;12.14;97.57;101027.00;5014280;28;20045;-72
2022/09/24 04:36:58;;;;;;;31.83;20.10;;;;;;;12.15;97.59;101026.88;5028992;28;20021;-71
2022/09/24 04:39:26;;;;;;;32.53;19.33;;;;;;;12.15;98.00;101031.47;5008852;28;20060;-71
2022/09/24 04:41:52;;;;;;;37.95;20.15;;;;;;;12.14;97.82;101033.34;5022667;28;20089;-72
2022/09/24 04:44:17;;;;;;;32.83;18.52;;;;;;;12.15;98.24;101029.63;5026074;28;20037;-71
2022/09/24 04:46:42;;;;;;;34.17;19.02;;;;;;;12.14;98.52;101027.00;5032517;28;20045;-71
2022/09/24 04:49:08;;;;;;;37.88;20.95;;;;;;;12.11;98.26;101025.38;5032852;28;20049;-71
2022/09/24 04:51:34;;;;;;;32.40;18.20;;;;;;;12.13;98.25;101031.59;5033316;28;20021;-71
2022/09/24 04:54:01;;;;;;;31.65;18.65;;;;;;;12.12;98.47;101035.28;5031317;28;20068;-71
2022/09/24 04:56:27;;;;;;;29.45;18.45;;;;;;;12.12;98.70;101028.97;5033240;28;20428;-71
2022/09/24 04:58:53;;;;;;;31.23;19.02;;;;;;;12.10;98.48;101031.81;5028965;28;20022;-70
2022/09/24 05:01:19;;;;;;;33.85;19.60;;;;;;;12.11;98.53;101028.09;5033259;28;20487;-70
2022/09/24 05:03:45;;;;;;;35.05;19.67;;;;;;;12.11;98.74;101022.66;5032611;28;20037;-70
2022/09/24 05:06:11;;;;;;;28.65;17.50;;;;;;;12.09;98.26;101018.31;5032767;28;20036;-70
2022/09/24 05:08:36;;;;;;;33.08;18.67;;;;;;;12.11;98.49;101022.66;5032596;28;20033;-70
2022/09/24 05:11:02;;;;;;;33.00;18.33;;;;;;;12.11;98.39;101025.38;5031959;28;20060;-71
2022/09/24 05:13:27;;;;;;;28.13;16.25;;;;;;;12.11;98.62;101024.50;5031992;28;20471;-71
2022/09/24 05:15:53;;;;;;;30.60;18.13;;;;;;;12.11;98.41;101038.16;5031957;28;20049;-71
2022/09/24 05:18:18;;;;;;;27.13;17.00;;;;;;;12.14;98.30;101029.75;5013473;28;20456;-71
2022/09/24 05:20:43;;;;;;;32.60;18.05;;;;;;;12.13;98.58;101034.34;5030027;28;20091;-71
2022/09/24 05:23:09;;;;;;;30.63;18.00;;;;;;;12.13;98.37;101034.34;5030456;28;20071;-71
2022/09/24 05:27:07;;;;;;;29.35;16.48;;;;;;;12.14;98.72;101038.78;5032668;28;20029;-71
2022/09/24 05:28:20;;;;;;;33.83;17.90;;;;;;;12.14;98.93;101037.94;5030579;28;20145;-70
2022/09/24 05:30:46;;;;;;;29.60;16.55;;;;;;;12.14;98.73;101029.75;5031596;28;20091;-71
2022/09/24 05:33:11;;;;;;;28.48;16.67;;;;;;;12.14;98.61;101027.88;5027395;28;20026;-71
2022/09/24 05:35:37;;;;;;;29.33;15.93;;;;;;;12.15;98.72;101036.94;5023471;28;20045;-71
2022/09/24 05:38:02;;;;;;;28.98;16.25;;;;;;;12.15;98.68;101035.06;5031821;28;20132;-72
2022/09/24 05:43:12;;;;;;;28.02;15.13;;;;;;;12.13;98.95;101030.75;5032415;28;20037;-72
2022/09/24 05:45:38;;;;;;;23.33;13.88;;;;;;;12.13;98.81;101030.75;5031703;28;20041;-71
2022/09/24 05:48:04;;;;;;;23.33;14.75;;;;;;;12.14;98.51;101041.53;5032170;28;20439;-70
2022/09/24 05:50:31;;;;;;;24.63;15.00;;;;;;;12.13;98.66;101036.19;5030957;28;20037;-71
2022/09/24 05:52:57;;;;;;;24.70;14.05;;;;;;;12.12;98.65;101043.47;5031059;28;20045;-71
2022/09/24 05:55:22;;;;;;;24.92;14.98;;;;;;;12.11;98.75;101038.16;5027676;28;20036;-71
2022/09/24 05:57:48;;;;;;;24.40;14.38;;;;;;;12.13;98.64;101044.38;5031158;28;20534;-71
2022/09/24 06:00:13;;;;;;;24.73;14.80;;;;;;;12.11;98.78;101046.31;5029901;28;20042;-69
2022/09/24 06:02:38;;;;;;;23.17;13.82;;;;;;;12.14;98.88;101048.84;5061023;22;20061;-73
2022/09/24 06:05:04;;;;;;;22.85;13.15;;;;;;;12.13;98.63;101050.69;5046209;28;20033;-72
2022/09/24 06:07:30;;;;;;;21.80;13.15;;;;;;;12.15;98.84;101047.84;5042466;28;20072;-72
2022/09/24 06:09:58;;;;;;;25.10;14.25;;;;;;;12.15;99.01;101045.97;5045480;28;20621;-72
2022/09/24 06:12:23;;;;;;;24.10;14.95;;;;;;;12.15;98.99;101051.44;5046390;28;20032;-71
2022/09/24 06:14:49;;;;;;;20.25;13.63;;;;;;;12.15;98.85;101053.28;5046843;28;20029;-71
2022/09/24 06:17:14;;;;;;;20.98;13.93;;;;;;;12.15;98.94;101051.44;5042793;28;20048;-71
2022/09/24 06:19:39;;;;;;;22.92;14.30;;;;;;;12.16;99.01;101050.44;5045589;28;20041;-72
2022/09/24 06:22:05;;;;;;;24.45;13.60;;;;;;;12.16;99.25;101053.16;5047522;28;20025;-70
2022/09/24 06:24:30;;;;;;;24.80;14.07;;;;;;;12.17;99.24;101056.75;5049754;28;20024;-72
2022/09/24 06:26:57;;;;;;;25.65;14.20;;;;;;;12.17;98.81;101056.75;5049183;28;20040;-71
2022/09/24 06:29:22;;;;;;;25.58;15.05;;;;;;;12.17;99.12;101052.22;5047307;28;20495;-72
2022/09/24 06:31:47;;;;;;;25.80;14.57;;;;;;;12.19;99.29;101060.25;5048913;28;20044;-72
2022/09/24 06:34:14;;;;;;;21.92;13.10;;;;;;;12.19;99.18;101052.94;5035332;28;20488;-72
2022/09/24 06:36:39;;;;;;;28.95;15.30;;;;;;;12.18;98.96;101062.13;5047626;28;20047;-72
2022/09/24 06:39:06;;;;;;;21.17;12.95;;;;;;;12.21;98.33;101061.88;5048046;28;20403;-71
2022/09/24 06:41:31;;;;;;;22.25;12.82;;;;;;;12.20;98.86;101065.59;5046836;28;20187;-72
2022/09/24 06:43:57;;;;;;;23.73;13.50;;;;;;;12.22;98.65;101066.38;5045104;28;20477;-72
2022/09/24 06:46:24;;;;;;;22.27;13.45;;;;;;;12.27;98.98;101066.03;5048223;28;20169;-72
2022/09/24 06:48:50;;;;;;;22.58;13.00;;;;;;;12.25;98.57;101068.84;5054540;28;20067;-72
2022/09/24 06:51:16;;;;;;;22.20;13.65;;;;;;;12.28;98.93;101073.22;5047588;28;20064;-71
2022/09/24 06:53:41;;;;;;;25.33;14.40;;;;;;;12.31;98.88;101072.09;5047632;28;20083;-72
2022/09/24 06:56:06;;;;;;;23.05;13.73;;;;;;;12.30;98.71;101075.81;5048387;28;20117;-71
2022/09/24 06:58:32;;;;;;;25.45;13.20;;;;;;;12.31;98.58;101078.44;5047591;28;20041;-71
2022/09/24 07:01:01;;;;;;;19.75;12.55;;;;;;;12.30;97.85;101075.81;5046776;28;20045;-72
2022/09/24 07:03:29;;;;;;;20.80;12.32;;;;;;;12.32;97.67;101073.84;5030442;28;20049;-71
2022/09/24 07:05:58;;;;;;;25.15;13.65;;;;;;;12.34;97.84;101078.19;5016238;28;20053;-71
2022/09/24 07:08:23;;;;;;;21.48;13.20;;;;;;;12.35;98.03;101076.31;5020738;28;20136;-71
2022/09/24 07:10:48;;;;;;;22.05;13.10;;;;;;;12.31;98.27;101069.34;5028413;28;20675;-72
2022/09/24 07:13:15;;;;;;;21.55;12.95;;;;;;;12.35;98.48;101088.09;5027806;28;20025;-72
2022/09/24 07:15:41;;;;;;;19.30;12.93;;;;;;;12.37;98.46;101088.00;5027210;28;20045;-71
2022/09/24 07:18:06;;;;;;;21.65;12.38;;;;;;;12.35;98.23;101081.78;5024571;28;20124;-72
2022/09/24 07:20:33;;;;;;;17.73;11.50;;;;;;;12.38;97.38;101084.28;5009630;28;20117;-72
2022/09/24 07:22:59;;;;;;;23.10;12.77;;;;;;;12.36;98.03;101089.88;5015339;28;20036;-72
2022/09/24 07:25:24;;;;;;;19.35;12.70;;;;;;;12.40;98.54;101093.22;5021495;28;20025;-72
2022/09/24 07:27:49;;;;;;;23.33;13.68;;;;;;;12.39;98.80;101086.03;5020822;28;20033;-72
2022/09/24 07:30:15;;;;;;;24.55;13.93;;;;;;;12.38;98.94;101087.88;5024449;28;20034;-72
2022/09/24 07:32:40;;;;;;;21.58;14.02;;;;;;;12.34;98.72;101089.09;5025632;28;20174;-72
2022/09/24 07:35:06;;;;;;;20.48;13.43;;;;;;;12.38;98.65;101095.19;5020670;28;20041;-72
2022/09/24 07:37:32;;;;;;;24.45;14.95;;;;;;;12.38;98.92;101103.38;5025814;28;20041;-72
2022/09/24 07:39:57;;;;;;;23.50;13.45;;;;;;;12.40;98.51;101091.38;5028079;28;20030;-71
2022/09/24 07:42:24;;;;;;;22.42;13.48;;;;;;;12.43;98.49;101099.31;5018089;28;20051;-72
2022/09/24 07:44:50;;;;;;;23.48;14.57;;;;;;;12.46;98.27;101100.94;5006532;28;20970;-72
2022/09/24 07:47:15;;;;;;;22.48;13.63;;;;;;;12.49;98.39;101106.16;5008305;28;20029;-72
2022/09/24 07:49:41;;;;;;;23.45;13.68;;;;;;;12.49;98.36;101106.16;5022863;28;20048;-73
2022/09/24 07:52:07;;;;;;;21.85;13.82;;;;;;;12.50;98.19;101111.53;5025149;28;20033;-72
2022/09/24 07:54:32;;;;;;;23.48;14.95;;;;;;;12.52;98.37;101111.38;5014767;28;20369;-73
2022/09/24 07:56:57;;;;;;;24.80;14.45;;;;;;;12.51;98.57;101106.94;5021886;28;20033;-72
2022/09/24 07:59:23;;;;;;;26.15;15.60;;;;;;;12.50;98.71;101108.78;5025045;28;20719;-73
2022/09/24 08:01:49;;;;;;;25.25;15.38;;;;;;;12.54;98.61;101116.72;5025149;28;20061;-73
2022/09/24 08:04:14;;;;;;;28.60;15.00;;;;;;;12.53;98.63;101115.84;5026857;28;20120;-72
2022/09/24 08:06:40;;;;;;;27.27;15.23;;;;;;;12.54;98.58;101114.00;5026987;28;20480;-73
2022/09/24 08:09:05;;;;;;;25.40;15.75;;;;;;;12.58;98.27;101115.50;5028154;28;20034;-72
2022/09/24 08:11:32;;;;;;;23.08;14.38;;;;;;;12.58;98.34;101115.50;5025887;28;20038;-73
2022/09/24 08:13:57;;;;;;;26.83;16.23;;;;;;;12.61;98.55;101118.00;5020780;28;20055;-73
2022/09/24 08:16:24;;;;;;;29.85;16.98;;;;;;;12.64;98.58;101115.91;5022320;28;20605;-73
2022/09/24 08:18:50;;;;;;;24.73;15.77;;;;;;;12.66;98.61;101124.84;5020799;28;20041;-73
2022/09/24 08:21:16;;;;;;;24.15;14.90;;;;;;;12.68;98.55;101131.06;5021927;28;20428;-73
2022/09/24 08:23:42;;;;;;;26.67;16.25;;;;;;;12.74;98.66;101129.72;5021482;28;20037;-74
2022/09/24 08:26:09;;;;;;;25.17;15.25;;;;;;;12.73;98.67;101130.72;5025541;28;20449;-72
2022/09/24 08:28:36;;;;;;;28.35;16.05;;;;;;;12.75;98.54;101132.34;5028118;28;20101;-73
2022/09/24 08:31:06;;;;;;;30.38;17.20;;;;;;;12.79;98.84;101137.56;5021982;28;20042;-73
2022/09/24 08:33:31;;;;;;;27.60;16.13;;;;;;;12.79;98.40;101129.38;5022755;28;20040;-74
2022/09/24 08:36:02;;;;;;;26.33;15.27;;;;;;;12.80;98.23;101133.84;5023540;28;20464;-73
2022/09/24 08:38:28;;;;;;;25.85;16.40;;;;;;;12.79;98.05;101130.25;5027924;28;20040;-73
2022/09/24 08:41:27;;;;;;;26.88;16.17;;;;;;;12.84;98.27;101144.41;5023805;28;20033;-73
2022/09/24 08:44:07;;;;;;;29.88;16.50;;;;;;;12.89;98.31;101135.84;4992998;28;20081;-72
2022/09/24 08:49:30;;;;;;;25.92;15.80;;;;;;;12.93;97.44;101143.69;5025163;28;20049;-73
2022/09/24 08:52:03;;;;;;;28.02;16.27;;;;;;;12.99;97.80;101145.94;5029376;28;20033;-72
2022/09/24 08:54:32;;;;;;;28.75;17.38;;;;;;;13.01;97.70;101149.44;5012700;28;20038;-73
2022/09/24 08:57:01;;;;;;;28.05;16.95;;;;;;;13.05;97.53;101144.59;5024723;28;21290;-73
2022/09/24 08:59:29;;;;;;;26.55;15.77;;;;;;;13.06;96.88;101145.50;5027134;28;20034;-73
2022/09/24 09:02:09;;;;;;;22.52;15.32;;;;;;;13.09;96.92;101150.69;5031860;28;20030;-74
2022/09/24 09:04:56;;;;;;;22.75;14.90;;;;;;;13.14;97.31;101151.19;5028262;28;20052;-72
2022/09/24 09:07:36;;;;;;;24.17;15.43;;;;;;;13.18;97.87;101153.56;5029767;28;20037;-72
2022/09/24 09:10:08;;;;;;;23.27;14.65;;;;;;;13.21;96.49;101150.59;5040574;28;20037;-73
2022/09/24 09:12:42;;;;;;;26.58;15.93;;;;;;;13.24;97.31;101150.41;5028293;28;20041;-73
2022/09/24 09:15:19;;;;;;;25.65;15.50;;;;;;;13.27;97.02;101154.75;5028903;28;20033;-73
2022/09/24 09:17:53;;;;;;;25.67;15.68;;;;;;;13.27;96.02;101160.22;5028097;28;20128;-73
2022/09/24 09:20:51;;;;;;;21.00;14.05;;;;;;;13.30;95.85;101161.84;5037023;28;20397;-73
2022/09/24 09:23:27;;;;;;;29.40;17.05;;;;;;;13.25;96.45;101164.94;5009199;28;20045;-74
2022/09/24 09:25:58;;;;;;;24.08;15.23;;;;;;;13.27;96.28;101165.66;5027947;28;20041;-74
2022/09/24 09:28:27;;;;;;;27.95;16.77;;;;;;;13.25;95.83;101154.88;5029212;28;20041;-73
2022/09/24 09:30:57;;;;;;;25.95;16.58;;;;;;;13.27;96.04;101165.66;5025759;28;20041;-73
2022/09/24 09:33:23;;;;;;;27.40;16.05;;;;;;;13.31;95.45;101169.03;5024033;28;20124;-73
2022/09/24 09:36:02;;;;;;;23.65;15.90;;;;;;;13.39;96.13;101164.72;5027284;28;20100;-73
2022/09/24 09:38:50;;;;;;;22.30;15.35;;;;;;;13.42;95.76;101164.44;5026145;28;20056;-74
2022/09/24 09:41:38;;;;;;;27.23;15.70;;;;;;;13.50;96.04;101163.84;5030306;28;20045;-73
2022/09/24 09:44:14;;;;;;;26.55;16.88;;;;;;;13.54;95.28;101165.34;5026278;28;20037;-74
2022/09/24 09:46:48;;;;;;;30.63;18.05;;;;;;;13.51;95.37;101165.59;5029919;28;20155;-73
2022/09/24 09:49:15;;;;;;;28.83;16.77;;;;;;;13.57;95.51;101164.22;5024928;28;20029;-73
2022/09/24 09:51:43;;;;;;;26.90;17.00;;;;;;;13.57;95.93;101162.38;5030643;28;20410;-74
2022/09/24 09:54:08;;;;;;;25.55;16.80;;;;;;;13.57;95.73;101159.66;5028862;28;20044;-73
2022/09/24 09:56:35;;;;;;;29.48;16.95;;;;;;;13.64;95.61;101162.75;5026761;28;20034;-74
2022/09/24 09:59:05;;;;;;;28.73;16.08;;;;;;;13.71;95.52;101164.00;5029910;28;20029;-73
2022/09/24 10:01:34;;;;;;;25.73;17.33;;;;;;;13.75;95.41;101170.94;5027519;28;20163;-73
2022/09/24 10:04:02;;;;;;;27.30;17.50;;;;;;;13.76;94.54;101167.25;5030146;28;20036;-73
2022/09/24 10:06:31;;;;;;;28.60;16.73;;;;;;;13.79;94.43;101167.84;5017181;28;20393;-73
2022/09/24 10:09:20;;;;;;;27.58;17.27;;;;;;;13.87;94.70;101166.38;5025078;28;20061;-73
2022/09/24 10:11:46;;;;;;;24.75;16.65;;;;;;;13.90;93.93;101164.25;5030417;28;20038;-73
2022/09/24 10:14:14;;;;;;;26.67;17.55;;;;;;;13.92;93.80;101164.13;5030314;28;20021;-72
2022/09/24 10:16:43;;;;;;;25.45;16.10;;;;;;;13.96;94.95;101166.47;5030856;28;20048;-72
2022/09/24 10:19:18;;;;;;;29.80;18.67;;;;;;;13.97;93.63;101160.00;5029899;28;20068;-72
2022/09/24 10:21:43;;;;;;;30.73;18.85;;;;;;;14.02;94.39;101168.72;5044829;28;20494;-72
2022/09/24 10:24:16;;;;;;;27.23;17.85;;;;;;;14.09;93.53;101163.63;5029736;28;20024;-73
2022/09/24 10:26:44;;;;;;;28.23;17.02;;;;;;;14.13;92.59;101164.22;5030013;28;20045;-72
2022/09/24 10:32:20;;;;;;;29.42;17.35;;;;;;;14.30;92.17;101160.97;5033511;28;20067;-72
2022/09/24 10:34:57;;;;;;;26.85;16.45;;;;;;;14.42;92.24;101167.28;5029635;28;20033;-72
2022/09/24 10:37:22;;;;;;;23.05;15.75;;;;;;;14.45;92.22;101165.16;5040201;28;20064;-72
2022/09/24 10:40:10;;;;;;;24.80;15.68;;;;;;;14.46;91.64;101169.66;5024577;28;20524;-72
2022/09/24 10:42:36;;;;;;;22.77;14.82;;;;;;;14.44;90.22;101166.16;5023115;28;20037;-72
2022/09/24 10:45:03;;;;;;;23.70;14.70;;;;;;;14.47;90.67;101176.00;5029843;28;20384;-72
2022/09/24 10:47:46;;;;;;;25.23;14.63;;;;;;;14.44;90.41;101174.38;5045889;28;20037;-72
2022/09/24 10:50:24;;;;;;;;;;;;;;;14.52;91.02;101180.13;5024793;28;20037;-72
2022/09/24 10:52:56;;;;;;;21.92;13.68;;;;;;;14.53;89.62;101176.38;5017011;28;20643;-73
2022/09/24 10:55:38;;;;;;;21.63;14.70;;;;;;;14.54;90.72;101175.38;5029772;28;20511;-72
2022/09/24 10:58:21;;;;;;;23.03;14.47;;;;;;;14.62;89.99;101177.47;5030483;28;20047;-73
2022/09/24 11:00:59;;;;;;;23.15;14.52;;;;;;;14.66;89.64;101173.47;5029533;28;20041;-72
2022/09/24 11:03:36;;;;;;;26.67;15.68;;;;;;;14.71;90.32;101173.09;5026021;28;20045;-72
2022/09/24 11:06:25;;;;;;;23.80;16.10;;;;;;;14.71;90.17;101175.81;5023573;28;20083;-71
2022/09/24 11:08:53;;;;;;;25.95;15.93;;;;;;;14.78;89.96;101179.75;5027538;28;20108;-72
2022/09/24 11:11:33;;;;;;;24.70;15.85;;;;;;;14.78;89.37;101179.75;5027605;28;20487;-72
2022/09/24 11:14:17;;;;;;;24.25;15.07;;;;;;;14.82;89.63;101180.38;5026080;28;20036;-72
2022/09/24 11:16:59;;;;;;;23.63;14.93;;;;;;;14.90;89.47;101181.47;5027114;28;20065;-72
2022/09/24 11:19:29;;;;;;;24.25;16.33;;;;;;;14.94;89.15;101179.34;5028024;28;20750;-73
2022/09/24 11:22:16;;;;;;;24.15;15.27;;;;;;;15.01;89.46;101188.75;5041041;28;20033;-73
2022/09/24 11:24:59;;;;;;;22.33;14.80;;;;;;;14.95;88.02;101192.03;5025249;28;20476;-73
2022/09/24 11:27:38;;;;;;;23.33;15.48;;;;;;;14.96;88.20;101191.03;5023203;28;20128;-73
2022/09/24 11:30:40;;;;;;;20.45;14.27;;;;;;;15.03;88.75;101184.03;5027902;28;20037;-73